Hlavní strana
METAR-TAF:

METAR-TAF

Letiště :

Tomsk, Rusko

zeměpisná šířka: 56-23-12N, zeměpisná délka: 085-12-38E, výška: 182 m

Aktuální stav počasí

Zpráva byla vytvořena před 18 minutami, v 12:00 UTC
Jihojihozápadní vítr 10 kt
Teplota 11°C
Vlhkost vzduchu 20%
Tlak 1016 hPa
Viditelnost 10 km a více
Žádná oblačnost pod 1500 m, nevyskytují se cumulonimby.

METAR: UNTT 231200Z 20005MPS CAVOK 11/M11 Q1016 NOSIG RMK QFE747

Čas: 19:18 (12:18 UTC)

Předpověď počasí

Zpráva byla vytvořena před 1 hodinou a 18 minutami, v 11:00 UTC
Předpověď platná od 23 v 12 UTC do 23 v 21 UTC
Jižní vítr 6 kt s nárazy do 16 kt
Viditelnost 10 km a více
Žádná oblačnost pod 1500 m, nevyskytují se cumulonimby.
Dočasný
od 23 v 12 UTC do 23 v 21 UTC
Jihozápadní vítr 10 kt s nárazy do 19 kt

TAF: UNTT 231100Z 2312/2321 19003G08MPS CAVOK TEMPO 2312/2321 23005G10MPS

Stav a předpovědi počasí z více než 4 000 letišť (zprávy METAR a TAF).

Červené a žluté tečky na mapě představují dostupné meteorologické stanice.

Když kurzor umístíte na tečku, zobrazí se název stanice.

Pak kliknutím zobrazíte stav a předpověď počasí.

Chcete-li změnit mapu, kliknutím na zelené tlačítko se znaménkem +mapu přiblížíte, kliknutím na zelené tlačítko se znaménkem – mapu oddálíte a kliknutím na zelené šipky přejdete na sousední mapy.


METAR-TAF: